Terminal Aerodrome Forecast
Issued by NWS

Home | Current Version | Previous Version | Text Only | Print | Product List | Glossary On
Versions: 1 2 3 4 5 6 7 8 9 10 11 12 13 14 15
000
FTUS43 KILX 011700 RRA
TAFDEC
TAF
KDEC 011746Z 0118/0218 12008KT 1SM -RASN BR OVC006
     FM012100 35010KT 3SM -SN OVC008
     FM020100 34020G30KT 4SM -SN OVC015
     FM020800 33020G28KT P6SM OVC015
     FM021500 32010KT P6SM BKN020=

USA.gov is the U.S. government's official web portal to all federal, state and local government web resources and services.